sensor_id;sensor_type;location;lat;lon;timestamp;temperature;humidity
3492;DHT22;1760;52.480;13.422;2023-12-20T00:02:05;7.70;99.90
3492;DHT22;1760;52.480;13.422;2023-12-20T00:04:32;7.60;99.90
3492;DHT22;1760;52.480;13.422;2023-12-20T00:06:59;7.60;99.90
3492;DHT22;1760;52.480;13.422;2023-12-20T00:09:27;7.60;99.90
3492;DHT22;1760;52.480;13.422;2023-12-20T00:11:53;7.60;99.90
3492;DHT22;1760;52.480;13.422;2023-12-20T00:14:20;7.50;99.90
3492;DHT22;1760;52.480;13.422;2023-12-20T00:16:48;7.50;99.90
3492;DHT22;1760;52.480;13.422;2023-12-20T00:19:15;7.50;99.90
3492;DHT22;1760;52.480;13.422;2023-12-20T00:21:42;7.50;99.90
3492;DHT22;1760;52.480;13.422;2023-12-20T00:24:09;7.60;99.90
3492;DHT22;1760;52.480;13.422;2023-12-20T00:26:36;7.60;99.90
3492;DHT22;1760;52.480;13.422;2023-12-20T00:29:03;7.60;99.90
3492;DHT22;1760;52.480;13.422;2023-12-20T00:31:30;7.50;99.90
3492;DHT22;1760;52.480;13.422;2023-12-20T00:33:58;7.60;99.90
3492;DHT22;1760;52.480;13.422;2023-12-20T00:36:25;7.50;99.90
3492;DHT22;1760;52.480;13.422;2023-12-20T00:38:51;7.60;99.90
3492;DHT22;1760;52.480;13.422;2023-12-20T00:41:18;7.60;99.90
3492;DHT22;1760;52.480;13.422;2023-12-20T00:43:45;7.60;99.90
3492;DHT22;1760;52.480;13.422;2023-12-20T00:46:12;7.60;99.90
3492;DHT22;1760;52.480;13.422;2023-12-20T00:48:39;7.50;99.90
3492;DHT22;1760;52.480;13.422;2023-12-20T00:51:09;7.60;99.90
3492;DHT22;1760;52.480;13.422;2023-12-20T00:53:35;7.60;99.90
3492;DHT22;1760;52.480;13.422;2023-12-20T00:56:03;7.60;99.90
3492;DHT22;1760;52.480;13.422;2023-12-20T00:58:29;7.50;99.90
3492;DHT22;1760;52.480;13.422;2023-12-20T01:00:56;7.60;99.90
3492;DHT22;1760;52.480;13.422;2023-12-20T01:03:23;7.60;99.90
3492;DHT22;1760;52.480;13.422;2023-12-20T01:05:50;7.60;99.90
3492;DHT22;1760;52.480;13.422;2023-12-20T01:08:18;7.60;99.90
3492;DHT22;1760;52.480;13.422;2023-12-20T01:10:45;7.60;99.90
3492;DHT22;1760;52.480;13.422;2023-12-20T01:13:13;7.60;99.90
3492;DHT22;1760;52.480;13.422;2023-12-20T01:15:40;7.50;99.90
3492;DHT22;1760;52.480;13.422;2023-12-20T01:18:07;7.50;99.90
3492;DHT22;1760;52.480;13.422;2023-12-20T01:20:34;7.50;99.90
3492;DHT22;1760;52.480;13.422;2023-12-20T01:23:01;7.50;99.90
3492;DHT22;1760;52.480;13.422;2023-12-20T01:25:29;7.60;99.90
3492;DHT22;1760;52.480;13.422;2023-12-20T01:27:56;7.50;99.90
3492;DHT22;1760;52.480;13.422;2023-12-20T01:30:23;7.50;99.90
3492;DHT22;1760;52.480;13.422;2023-12-20T01:32:50;7.50;99.90
3492;DHT22;1760;52.480;13.422;2023-12-20T01:35:17;7.50;99.90
3492;DHT22;1760;52.480;13.422;2023-12-20T01:37:44;7.50;99.90
3492;DHT22;1760;52.480;13.422;2023-12-20T01:40:11;7.50;99.90
3492;DHT22;1760;52.480;13.422;2023-12-20T01:42:40;7.50;99.90
3492;DHT22;1760;52.480;13.422;2023-12-20T01:45:09;7.50;99.90
3492;DHT22;1760;52.480;13.422;2023-12-20T01:47:36;7.50;99.90
3492;DHT22;1760;52.480;13.422;2023-12-20T01:50:04;7.60;99.90
3492;DHT22;1760;52.480;13.422;2023-12-20T01:52:34;7.60;99.90
3492;DHT22;1760;52.480;13.422;2023-12-20T01:55:02;7.50;99.90
3492;DHT22;1760;52.480;13.422;2023-12-20T01:57:32;7.50;99.90
3492;DHT22;1760;52.480;13.422;2023-12-20T02:00:00;7.50;99.90
3492;DHT22;1760;52.480;13.422;2023-12-20T02:02:29;7.60;99.90
3492;DHT22;1760;52.480;13.422;2023-12-20T02:04:57;7.50;99.90
3492;DHT22;1760;52.480;13.422;2023-12-20T02:07:24;7.40;99.90
3492;DHT22;1760;52.480;13.422;2023-12-20T02:09:52;7.40;99.90
3492;DHT22;1760;52.480;13.422;2023-12-20T02:12:19;7.30;99.90
3492;DHT22;1760;52.480;13.422;2023-12-20T02:14:46;7.40;99.90
3492;DHT22;1760;52.480;13.422;2023-12-20T02:17:14;7.40;99.90
3492;DHT22;1760;52.480;13.422;2023-12-20T02:19:41;7.40;99.90
3492;DHT22;1760;52.480;13.422;2023-12-20T02:22:10;7.50;99.90
3492;DHT22;1760;52.480;13.422;2023-12-20T02:24:37;7.50;99.90
3492;DHT22;1760;52.480;13.422;2023-12-20T02:27:06;7.50;99.90
3492;DHT22;1760;52.480;13.422;2023-12-20T02:29:33;7.50;99.90
3492;DHT22;1760;52.480;13.422;2023-12-20T02:32:00;7.60;99.90
3492;DHT22;1760;52.480;13.422;2023-12-20T02:34:27;7.60;99.90
3492;DHT22;1760;52.480;13.422;2023-12-20T02:36:54;7.50;99.90
3492;DHT22;1760;52.480;13.422;2023-12-20T02:39:22;7.50;99.90
3492;DHT22;1760;52.480;13.422;2023-12-20T02:41:49;7.50;99.90
3492;DHT22;1760;52.480;13.422;2023-12-20T02:44:16;7.50;99.90
3492;DHT22;1760;52.480;13.422;2023-12-20T02:46:43;7.50;99.90
3492;DHT22;1760;52.480;13.422;2023-12-20T02:49:10;7.60;99.90
3492;DHT22;1760;52.480;13.422;2023-12-20T02:51:37;7.50;99.90
3492;DHT22;1760;52.480;13.422;2023-12-20T02:54:04;7.50;99.90
3492;DHT22;1760;52.480;13.422;2023-12-20T02:56:33;7.50;99.90
3492;DHT22;1760;52.480;13.422;2023-12-20T02:59:00;7.50;99.90
3492;DHT22;1760;52.480;13.422;2023-12-20T03:01:27;7.50;99.90
3492;DHT22;1760;52.480;13.422;2023-12-20T03:03:54;7.50;99.90
3492;DHT22;1760;52.480;13.422;2023-12-20T03:06:21;7.50;99.90
3492;DHT22;1760;52.480;13.422;2023-12-20T03:08:48;7.50;99.90
3492;DHT22;1760;52.480;13.422;2023-12-20T03:11:15;7.50;99.90
3492;DHT22;1760;52.480;13.422;2023-12-20T03:13:43;7.50;99.90
3492;DHT22;1760;52.480;13.422;2023-12-20T03:16:10;7.50;99.90
3492;DHT22;1760;52.480;13.422;2023-12-20T03:18:37;7.40;99.90
3492;DHT22;1760;52.480;13.422;2023-12-20T03:21:05;7.40;99.90
3492;DHT22;1760;52.480;13.422;2023-12-20T03:23:32;7.40;99.90
3492;DHT22;1760;52.480;13.422;2023-12-20T03:25:59;7.40;99.90
3492;DHT22;1760;52.480;13.422;2023-12-20T03:28:26;7.40;99.90
3492;DHT22;1760;52.480;13.422;2023-12-20T03:30:54;7.40;99.90
3492;DHT22;1760;52.480;13.422;2023-12-20T03:33:21;7.40;99.90
3492;DHT22;1760;52.480;13.422;2023-12-20T03:35:48;7.40;99.90
3492;DHT22;1760;52.480;13.422;2023-12-20T03:38:15;7.50;99.90
3492;DHT22;1760;52.480;13.422;2023-12-20T03:40:42;7.50;99.90
3492;DHT22;1760;52.480;13.422;2023-12-20T03:43:09;7.50;99.90
3492;DHT22;1760;52.480;13.422;2023-12-20T03:45:35;7.50;99.90
3492;DHT22;1760;52.480;13.422;2023-12-20T03:48:05;7.50;99.90
3492;DHT22;1760;52.480;13.422;2023-12-20T03:50:32;7.50;99.90
3492;DHT22;1760;52.480;13.422;2023-12-20T03:52:58;7.50;99.90
3492;DHT22;1760;52.480;13.422;2023-12-20T03:55:25;7.50;99.90
3492;DHT22;1760;52.480;13.422;2023-12-20T03:57:52;7.50;99.90
3492;DHT22;1760;52.480;13.422;2023-12-20T04:00:19;7.50;99.90
3492;DHT22;1760;52.480;13.422;2023-12-20T04:02:46;7.50;99.90
3492;DHT22;1760;52.480;13.422;2023-12-20T04:05:14;7.50;99.90
3492;DHT22;1760;52.480;13.422;2023-12-20T04:07:41;7.40;99.90
3492;DHT22;1760;52.480;13.422;2023-12-20T04:10:08;7.40;99.90
3492;DHT22;1760;52.480;13.422;2023-12-20T04:12:35;7.40;99.90
3492;DHT22;1760;52.480;13.422;2023-12-20T04:15:03;7.40;99.90
3492;DHT22;1760;52.480;13.422;2023-12-20T04:17:34;7.40;99.90
3492;DHT22;1760;52.480;13.422;2023-12-20T04:20:01;7.40;99.90
3492;DHT22;1760;52.480;13.422;2023-12-20T04:22:29;7.40;99.90
3492;DHT22;1760;52.480;13.422;2023-12-20T04:24:56;7.40;99.90
3492;DHT22;1760;52.480;13.422;2023-12-20T04:27:23;7.40;99.90
3492;DHT22;1760;52.480;13.422;2023-12-20T04:29:50;7.30;99.90
3492;DHT22;1760;52.480;13.422;2023-12-20T04:32:16;7.40;99.90
3492;DHT22;1760;52.480;13.422;2023-12-20T04:34:43;7.40;99.90
3492;DHT22;1760;52.480;13.422;2023-12-20T04:37:09;7.30;99.90
3492;DHT22;1760;52.480;13.422;2023-12-20T04:39:37;7.20;99.90
3492;DHT22;1760;52.480;13.422;2023-12-20T04:42:05;7.30;99.90
3492;DHT22;1760;52.480;13.422;2023-12-20T04:44:31;7.20;99.90
3492;DHT22;1760;52.480;13.422;2023-12-20T04:46:58;7.20;99.90
3492;DHT22;1760;52.480;13.422;2023-12-20T04:49:25;7.20;99.90
3492;DHT22;1760;52.480;13.422;2023-12-20T04:51:52;7.20;99.90
3492;DHT22;1760;52.480;13.422;2023-12-20T04:54:19;7.10;99.90
3492;DHT22;1760;52.480;13.422;2023-12-20T04:56:47;7.10;99.90
3492;DHT22;1760;52.480;13.422;2023-12-20T04:59:14;7.10;99.90
3492;DHT22;1760;52.480;13.422;2023-12-20T05:01:43;7.00;99.90
3492;DHT22;1760;52.480;13.422;2023-12-20T05:04:10;7.00;99.90
3492;DHT22;1760;52.480;13.422;2023-12-20T05:06:37;7.00;99.90
3492;DHT22;1760;52.480;13.422;2023-12-20T05:09:04;6.90;99.90
3492;DHT22;1760;52.480;13.422;2023-12-20T05:11:31;6.90;99.90
3492;DHT22;1760;52.480;13.422;2023-12-20T05:13:59;6.90;99.90
3492;DHT22;1760;52.480;13.422;2023-12-20T05:16:26;6.80;99.90
3492;DHT22;1760;52.480;13.422;2023-12-20T05:18:53;6.80;99.90
3492;DHT22;1760;52.480;13.422;2023-12-20T05:21:24;6.80;99.90
3492;DHT22;1760;52.480;13.422;2023-12-20T05:23:51;6.70;99.90
3492;DHT22;1760;52.480;13.422;2023-12-20T05:26:17;6.70;99.90
3492;DHT22;1760;52.480;13.422;2023-12-20T05:28:46;6.70;99.90
3492;DHT22;1760;52.480;13.422;2023-12-20T05:31:15;6.70;99.90
3492;DHT22;1760;52.480;13.422;2023-12-20T05:33:41;6.70;99.90
3492;DHT22;1760;52.480;13.422;2023-12-20T05:36:08;6.60;99.90
3492;DHT22;1760;52.480;13.422;2023-12-20T05:38:39;6.60;99.90
3492;DHT22;1760;52.480;13.422;2023-12-20T05:41:06;6.50;99.90
3492;DHT22;1760;52.480;13.422;2023-12-20T05:43:32;6.40;99.90
3492;DHT22;1760;52.480;13.422;2023-12-20T05:45:59;6.40;99.90
3492;DHT22;1760;52.480;13.422;2023-12-20T05:48:27;6.30;99.90
3492;DHT22;1760;52.480;13.422;2023-12-20T05:50:54;6.30;99.90
3492;DHT22;1760;52.480;13.422;2023-12-20T05:53:27;6.20;99.90
3492;DHT22;1760;52.480;13.422;2023-12-20T05:55:54;6.20;99.90
3492;DHT22;1760;52.480;13.422;2023-12-20T05:58:21;6.10;99.90
3492;DHT22;1760;52.480;13.422;2023-12-20T06:00:47;6.10;99.90
3492;DHT22;1760;52.480;13.422;2023-12-20T06:03:15;6.10;99.90
3492;DHT22;1760;52.480;13.422;2023-12-20T06:05:43;6.10;99.90
3492;DHT22;1760;52.480;13.422;2023-12-20T06:08:10;6.10;99.90
3492;DHT22;1760;52.480;13.422;2023-12-20T06:10:37;6.10;99.90
3492;DHT22;1760;52.480;13.422;2023-12-20T06:13:04;6.10;99.90
3492;DHT22;1760;52.480;13.422;2023-12-20T06:15:32;6.10;99.90
3492;DHT22;1760;52.480;13.422;2023-12-20T06:17:59;6.10;99.90
3492;DHT22;1760;52.480;13.422;2023-12-20T06:20:26;6.10;99.90
3492;DHT22;1760;52.480;13.422;2023-12-20T06:22:54;6.10;99.90
3492;DHT22;1760;52.480;13.422;2023-12-20T06:25:21;6.10;99.90
3492;DHT22;1760;52.480;13.422;2023-12-20T06:27:48;6.10;99.90
3492;DHT22;1760;52.480;13.422;2023-12-20T06:30:16;6.10;99.90
3492;DHT22;1760;52.480;13.422;2023-12-20T06:32:42;6.10;99.90
3492;DHT22;1760;52.480;13.422;2023-12-20T06:35:09;6.10;99.90
3492;DHT22;1760;52.480;13.422;2023-12-20T06:37:36;6.20;99.90
3492;DHT22;1760;52.480;13.422;2023-12-20T06:40:06;6.10;99.90
3492;DHT22;1760;52.480;13.422;2023-12-20T06:42:33;6.10;99.90
3492;DHT22;1760;52.480;13.422;2023-12-20T06:45:00;6.10;99.90
3492;DHT22;1760;52.480;13.422;2023-12-20T06:47:27;6.00;99.90
3492;DHT22;1760;52.480;13.422;2023-12-20T06:49:54;6.10;99.90
3492;DHT22;1760;52.480;13.422;2023-12-20T06:52:21;6.10;99.90
3492;DHT22;1760;52.480;13.422;2023-12-20T06:54:47;6.70;99.90
3492;DHT22;1760;52.480;13.422;2023-12-20T06:57:16;6.60;99.90
3492;DHT22;1760;52.480;13.422;2023-12-20T06:59:42;6.50;99.90
3492;DHT22;1760;52.480;13.422;2023-12-20T07:02:10;6.50;99.90
3492;DHT22;1760;52.480;13.422;2023-12-20T07:04:39;6.40;99.90
3492;DHT22;1760;52.480;13.422;2023-12-20T07:07:06;6.40;99.90
3492;DHT22;1760;52.480;13.422;2023-12-20T07:09:33;6.90;99.90
3492;DHT22;1760;52.480;13.422;2023-12-20T07:12:00;6.80;99.90
3492;DHT22;1760;52.480;13.422;2023-12-20T07:14:29;6.70;99.90
3492;DHT22;1760;52.480;13.422;2023-12-20T07:16:56;6.60;99.90
3492;DHT22;1760;52.480;13.422;2023-12-20T07:19:22;6.50;99.90
3492;DHT22;1760;52.480;13.422;2023-12-20T07:21:49;6.50;99.90
3492;DHT22;1760;52.480;13.422;2023-12-20T07:24:16;6.50;99.90
3492;DHT22;1760;52.480;13.422;2023-12-20T07:26:43;6.60;99.90
3492;DHT22;1760;52.480;13.422;2023-12-20T07:29:10;6.50;99.90
3492;DHT22;1760;52.480;13.422;2023-12-20T07:31:38;6.50;99.90
3492;DHT22;1760;52.480;13.422;2023-12-20T07:34:05;6.70;99.90
3492;DHT22;1760;52.480;13.422;2023-12-20T07:36:32;7.00;99.90
3492;DHT22;1760;52.480;13.422;2023-12-20T07:38:58;7.40;99.90
3492;DHT22;1760;52.480;13.422;2023-12-20T07:41:25;7.40;99.90
3492;DHT22;1760;52.480;13.422;2023-12-20T07:43:52;7.10;99.90
3492;DHT22;1760;52.480;13.422;2023-12-20T07:46:21;7.00;99.90
3492;DHT22;1760;52.480;13.422;2023-12-20T07:48:50;6.80;99.90
3492;DHT22;1760;52.480;13.422;2023-12-20T07:51:17;6.70;99.90
3492;DHT22;1760;52.480;13.422;2023-12-20T07:53:44;6.70;99.90
3492;DHT22;1760;52.480;13.422;2023-12-20T07:56:15;6.60;99.90
3492;DHT22;1760;52.480;13.422;2023-12-20T07:58:42;6.50;99.90
3492;DHT22;1760;52.480;13.422;2023-12-20T08:01:09;6.40;99.90
3492;DHT22;1760;52.480;13.422;2023-12-20T08:03:36;6.40;99.90
3492;DHT22;1760;52.480;13.422;2023-12-20T08:06:04;6.40;99.90
3492;DHT22;1760;52.480;13.422;2023-12-20T08:08:31;6.40;99.90
3492;DHT22;1760;52.480;13.422;2023-12-20T08:10:58;6.40;99.90
3492;DHT22;1760;52.480;13.422;2023-12-20T08:13:26;6.40;99.90
3492;DHT22;1760;52.480;13.422;2023-12-20T08:15:53;6.40;99.90
3492;DHT22;1760;52.480;13.422;2023-12-20T08:18:21;6.40;99.90
3492;DHT22;1760;52.480;13.422;2023-12-20T08:20:48;6.30;99.90
3492;DHT22;1760;52.480;13.422;2023-12-20T08:23:17;6.40;99.90
3492;DHT22;1760;52.480;13.422;2023-12-20T08:25:43;6.30;99.90
3492;DHT22;1760;52.480;13.422;2023-12-20T08:28:11;6.40;99.90
3492;DHT22;1760;52.480;13.422;2023-12-20T08:30:38;6.40;99.90
3492;DHT22;1760;52.480;13.422;2023-12-20T08:33:06;6.40;99.90
3492;DHT22;1760;52.480;13.422;2023-12-20T08:35:36;6.40;99.90
3492;DHT22;1760;52.480;13.422;2023-12-20T08:38:03;6.40;99.90
3492;DHT22;1760;52.480;13.422;2023-12-20T08:40:32;6.40;99.90
3492;DHT22;1760;52.480;13.422;2023-12-20T08:42:59;6.40;99.90
3492;DHT22;1760;52.480;13.422;2023-12-20T08:45:25;6.40;99.90
3492;DHT22;1760;52.480;13.422;2023-12-20T08:47:52;6.50;99.90
3492;DHT22;1760;52.480;13.422;2023-12-20T08:50:19;6.50;99.90
3492;DHT22;1760;52.480;13.422;2023-12-20T08:52:46;6.50;99.90
3492;DHT22;1760;52.480;13.422;2023-12-20T08:55:13;6.60;99.90
3492;DHT22;1760;52.480;13.422;2023-12-20T08:57:43;6.70;99.90
3492;DHT22;1760;52.480;13.422;2023-12-20T09:00:11;6.70;99.90
3492;DHT22;1760;52.480;13.422;2023-12-20T09:02:38;6.80;99.90
3492;DHT22;1760;52.480;13.422;2023-12-20T09:05:05;6.80;99.90
3492;DHT22;1760;52.480;13.422;2023-12-20T09:07:32;6.70;99.90
3492;DHT22;1760;52.480;13.422;2023-12-20T09:09:59;6.70;99.90
3492;DHT22;1760;52.480;13.422;2023-12-20T09:12:26;6.70;99.90
3492;DHT22;1760;52.480;13.422;2023-12-20T09:14:54;6.70;99.90
3492;DHT22;1760;52.480;13.422;2023-12-20T09:17:21;6.80;99.90
3492;DHT22;1760;52.480;13.422;2023-12-20T09:19:48;6.90;99.90
3492;DHT22;1760;52.480;13.422;2023-12-20T09:22:18;7.00;99.90
3492;DHT22;1760;52.480;13.422;2023-12-20T09:24:44;7.10;99.90
3492;DHT22;1760;52.480;13.422;2023-12-20T09:27:11;7.10;99.90
3492;DHT22;1760;52.480;13.422;2023-12-20T09:29:38;7.00;99.90
3492;DHT22;1760;52.480;13.422;2023-12-20T09:32:06;7.00;99.90
3492;DHT22;1760;52.480;13.422;2023-12-20T09:34:33;7.00;99.90
3492;DHT22;1760;52.480;13.422;2023-12-20T09:37:00;7.00;99.90
3492;DHT22;1760;52.480;13.422;2023-12-20T09:39:28;7.00;99.90
3492;DHT22;1760;52.480;13.422;2023-12-20T09:42:00;6.90;99.90
3492;DHT22;1760;52.480;13.422;2023-12-20T09:44:27;7.00;99.90
3492;DHT22;1760;52.480;13.422;2023-12-20T09:46:55;7.00;99.90
3492;DHT22;1760;52.480;13.422;2023-12-20T09:49:23;7.00;99.90
3492;DHT22;1760;52.480;13.422;2023-12-20T09:51:53;6.90;99.90
3492;DHT22;1760;52.480;13.422;2023-12-20T09:54:21;7.00;99.90
3492;DHT22;1760;52.480;13.422;2023-12-20T09:56:48;7.00;99.90
3492;DHT22;1760;52.480;13.422;2023-12-20T09:59:15;6.90;99.90
3492;DHT22;1760;52.480;13.422;2023-12-20T10:01:42;7.00;99.90
3492;DHT22;1760;52.480;13.422;2023-12-20T10:04:10;7.10;99.90
3492;DHT22;1760;52.480;13.422;2023-12-20T10:06:40;7.10;99.90
3492;DHT22;1760;52.480;13.422;2023-12-20T10:09:08;7.10;99.90
3492;DHT22;1760;52.480;13.422;2023-12-20T10:11:35;7.10;99.90
3492;DHT22;1760;52.480;13.422;2023-12-20T10:14:03;7.10;99.90
3492;DHT22;1760;52.480;13.422;2023-12-20T10:16:31;7.10;99.90
3492;DHT22;1760;52.480;13.422;2023-12-20T10:18:59;7.10;99.90
3492;DHT22;1760;52.480;13.422;2023-12-20T10:21:27;7.20;99.90
3492;DHT22;1760;52.480;13.422;2023-12-20T10:23:55;7.20;99.90
3492;DHT22;1760;52.480;13.422;2023-12-20T10:26:23;7.20;99.90
3492;DHT22;1760;52.480;13.422;2023-12-20T10:28:52;7.20;99.90
3492;DHT22;1760;52.480;13.422;2023-12-20T10:31:30;7.20;99.90
3492;DHT22;1760;52.480;13.422;2023-12-20T10:33:57;7.20;99.90
3492;DHT22;1760;52.480;13.422;2023-12-20T10:36:26;7.20;99.90
3492;DHT22;1760;52.480;13.422;2023-12-20T10:38:55;7.10;99.90
3492;DHT22;1760;52.480;13.422;2023-12-20T10:41:26;7.00;99.90
3492;DHT22;1760;52.480;13.422;2023-12-20T10:43:56;7.10;99.90
3492;DHT22;1760;52.480;13.422;2023-12-20T10:46:25;7.10;99.90
3492;DHT22;1760;52.480;13.422;2023-12-20T10:48:54;7.10;99.90
3492;DHT22;1760;52.480;13.422;2023-12-20T10:51:22;7.20;99.90
3492;DHT22;1760;52.480;13.422;2023-12-20T10:53:52;7.30;99.90
3492;DHT22;1760;52.480;13.422;2023-12-20T10:56:21;7.30;99.90
3492;DHT22;1760;52.480;13.422;2023-12-20T10:58:49;7.30;99.90
3492;DHT22;1760;52.480;13.422;2023-12-20T11:01:17;7.40;99.90
3492;DHT22;1760;52.480;13.422;2023-12-20T11:03:49;7.40;99.90
3492;DHT22;1760;52.480;13.422;2023-12-20T11:06:26;7.40;99.90
3492;DHT22;1760;52.480;13.422;2023-12-20T11:09:00;7.40;99.90
3492;DHT22;1760;52.480;13.422;2023-12-20T11:11:43;7.30;99.90
3492;DHT22;1760;52.480;13.422;2023-12-20T11:14:15;7.30;99.90
3492;DHT22;1760;52.480;13.422;2023-12-20T11:16:43;7.30;99.90
3492;DHT22;1760;52.480;13.422;2023-12-20T11:19:11;7.30;99.90
3492;DHT22;1760;52.480;13.422;2023-12-20T11:21:40;7.30;99.90
3492;DHT22;1760;52.480;13.422;2023-12-20T11:24:07;7.20;99.90
3492;DHT22;1760;52.480;13.422;2023-12-20T11:26:34;7.20;99.90
3492;DHT22;1760;52.480;13.422;2023-12-20T11:29:35;7.30;99.90
3492;DHT22;1760;52.480;13.422;2023-12-20T11:32:03;7.30;99.90
3492;DHT22;1760;52.480;13.422;2023-12-20T11:34:33;7.30;99.90
3492;DHT22;1760;52.480;13.422;2023-12-20T11:37:03;7.30;99.90
3492;DHT22;1760;52.480;13.422;2023-12-20T11:39:31;7.30;99.90
3492;DHT22;1760;52.480;13.422;2023-12-20T11:42:04;7.30;99.90
3492;DHT22;1760;52.480;13.422;2023-12-20T11:44:31;7.30;99.90
3492;DHT22;1760;52.480;13.422;2023-12-20T11:47:00;7.20;99.90
3492;DHT22;1760;52.480;13.422;2023-12-20T11:49:27;7.20;99.90
3492;DHT22;1760;52.480;13.422;2023-12-20T11:51:54;7.20;99.90
3492;DHT22;1760;52.480;13.422;2023-12-20T11:54:21;7.20;99.90
3492;DHT22;1760;52.480;13.422;2023-12-20T11:56:48;7.20;99.90
3492;DHT22;1760;52.480;13.422;2023-12-20T11:59:15;7.20;99.90
3492;DHT22;1760;52.480;13.422;2023-12-20T12:01:48;7.20;99.90
3492;DHT22;1760;52.480;13.422;2023-12-20T12:04:17;7.20;99.90
3492;DHT22;1760;52.480;13.422;2023-12-20T12:06:44;7.20;99.90
3492;DHT22;1760;52.480;13.422;2023-12-20T12:09:11;7.20;99.90
3492;DHT22;1760;52.480;13.422;2023-12-20T12:11:38;7.20;99.90
3492;DHT22;1760;52.480;13.422;2023-12-20T12:14:06;7.20;99.90
3492;DHT22;1760;52.480;13.422;2023-12-20T12:16:33;7.20;99.90
3492;DHT22;1760;52.480;13.422;2023-12-20T12:19:00;7.20;99.90
3492;DHT22;1760;52.480;13.422;2023-12-20T12:21:28;7.30;99.90
3492;DHT22;1760;52.480;13.422;2023-12-20T12:24:06;7.30;99.90
3492;DHT22;1760;52.480;13.422;2023-12-20T12:26:33;7.30;99.90
3492;DHT22;1760;52.480;13.422;2023-12-20T12:29:00;7.40;99.90
3492;DHT22;1760;52.480;13.422;2023-12-20T12:31:27;7.40;99.90
3492;DHT22;1760;52.480;13.422;2023-12-20T12:33:54;7.40;99.90
3492;DHT22;1760;52.480;13.422;2023-12-20T12:36:21;7.40;99.90
3492;DHT22;1760;52.480;13.422;2023-12-20T12:38:49;7.50;99.90
3492;DHT22;1760;52.480;13.422;2023-12-20T12:41:16;7.40;99.90
3492;DHT22;1760;52.480;13.422;2023-12-20T12:43:43;7.30;99.90
3492;DHT22;1760;52.480;13.422;2023-12-20T12:46:10;7.20;99.90
3492;DHT22;1760;52.480;13.422;2023-12-20T12:48:37;7.20;99.90
3492;DHT22;1760;52.480;13.422;2023-12-20T12:51:04;7.20;99.90
3492;DHT22;1760;52.480;13.422;2023-12-20T12:53:32;7.20;99.90
3492;DHT22;1760;52.480;13.422;2023-12-20T12:56:00;7.20;99.90
3492;DHT22;1760;52.480;13.422;2023-12-20T12:58:27;7.20;99.90
3492;DHT22;1760;52.480;13.422;2023-12-20T13:00:54;7.10;99.90
3492;DHT22;1760;52.480;13.422;2023-12-20T13:03:22;7.10;99.90
3492;DHT22;1760;52.480;13.422;2023-12-20T13:05:49;7.10;99.90
3492;DHT22;1760;52.480;13.422;2023-12-20T13:08:16;7.10;99.90
3492;DHT22;1760;52.480;13.422;2023-12-20T13:10:43;7.10;99.90
3492;DHT22;1760;52.480;13.422;2023-12-20T13:13:11;7.00;99.90
3492;DHT22;1760;52.480;13.422;2023-12-20T13:15:38;7.00;99.90
3492;DHT22;1760;52.480;13.422;2023-12-20T13:18:06;6.90;99.90
3492;DHT22;1760;52.480;13.422;2023-12-20T13:20:33;6.90;99.90
3492;DHT22;1760;52.480;13.422;2023-12-20T13:23:00;6.80;99.90
3492;DHT22;1760;52.480;13.422;2023-12-20T13:25:27;6.90;99.90
3492;DHT22;1760;52.480;13.422;2023-12-20T13:27:54;6.80;99.90
3492;DHT22;1760;52.480;13.422;2023-12-20T13:30:22;6.70;99.90
3492;DHT22;1760;52.480;13.422;2023-12-20T13:32:49;6.60;99.90
3492;DHT22;1760;52.480;13.422;2023-12-20T13:35:16;6.40;99.90
3492;DHT22;1760;52.480;13.422;2023-12-20T13:37:43;6.30;99.90
3492;DHT22;1760;52.480;13.422;2023-12-20T13:40:10;6.10;99.90
3492;DHT22;1760;52.480;13.422;2023-12-20T13:42:38;6.00;99.90
3492;DHT22;1760;52.480;13.422;2023-12-20T13:45:06;5.90;99.90
3492;DHT22;1760;52.480;13.422;2023-12-20T13:47:35;5.90;99.90
3492;DHT22;1760;52.480;13.422;2023-12-20T13:50:02;5.90;99.90
3492;DHT22;1760;52.480;13.422;2023-12-20T13:52:29;5.80;99.90
3492;DHT22;1760;52.480;13.422;2023-12-20T13:54:56;5.80;99.90
3492;DHT22;1760;52.480;13.422;2023-12-20T13:57:23;5.80;99.90
3492;DHT22;1760;52.480;13.422;2023-12-20T13:59:50;5.80;99.90
3492;DHT22;1760;52.480;13.422;2023-12-20T14:02:17;5.80;99.90
3492;DHT22;1760;52.480;13.422;2023-12-20T14:04:45;5.80;99.90
3492;DHT22;1760;52.480;13.422;2023-12-20T14:07:12;5.80;99.90
3492;DHT22;1760;52.480;13.422;2023-12-20T14:09:39;5.80;99.90
3492;DHT22;1760;52.480;13.422;2023-12-20T14:12:10;5.80;99.90
3492;DHT22;1760;52.480;13.422;2023-12-20T14:14:37;5.80;99.90
3492;DHT22;1760;52.480;13.422;2023-12-20T14:17:04;5.80;99.90
3492;DHT22;1760;52.480;13.422;2023-12-20T14:19:32;5.70;99.90
3492;DHT22;1760;52.480;13.422;2023-12-20T14:22:00;5.70;99.90
3492;DHT22;1760;52.480;13.422;2023-12-20T14:24:27;5.70;99.90
3492;DHT22;1760;52.480;13.422;2023-12-20T14:26:54;5.70;99.90
3492;DHT22;1760;52.480;13.422;2023-12-20T14:29:21;5.70;99.90
3492;DHT22;1760;52.480;13.422;2023-12-20T14:31:48;5.60;99.90
3492;DHT22;1760;52.480;13.422;2023-12-20T14:34:16;5.60;99.90
3492;DHT22;1760;52.480;13.422;2023-12-20T14:36:43;5.60;99.90
3492;DHT22;1760;52.480;13.422;2023-12-20T14:39:11;5.60;99.90
3492;DHT22;1760;52.480;13.422;2023-12-20T14:41:38;5.60;99.90
3492;DHT22;1760;52.480;13.422;2023-12-20T14:44:06;5.60;99.90
3492;DHT22;1760;52.480;13.422;2023-12-20T14:46:33;5.60;99.90
3492;DHT22;1760;52.480;13.422;2023-12-20T14:49:00;5.70;99.90
3492;DHT22;1760;52.480;13.422;2023-12-20T14:51:28;5.70;99.90
3492;DHT22;1760;52.480;13.422;2023-12-20T14:53:55;5.70;99.90
3492;DHT22;1760;52.480;13.422;2023-12-20T14:56:24;5.80;99.90
3492;DHT22;1760;52.480;13.422;2023-12-20T14:58:52;5.80;99.90
3492;DHT22;1760;52.480;13.422;2023-12-20T15:01:19;5.80;99.90
3492;DHT22;1760;52.480;13.422;2023-12-20T15:03:47;5.80;99.90
3492;DHT22;1760;52.480;13.422;2023-12-20T15:06:14;5.80;99.90
3492;DHT22;1760;52.480;13.422;2023-12-20T15:08:40;5.70;99.90
3492;DHT22;1760;52.480;13.422;2023-12-20T15:11:07;5.70;99.90
3492;DHT22;1760;52.480;13.422;2023-12-20T15:13:36;5.70;99.90
3492;DHT22;1760;52.480;13.422;2023-12-20T15:16:06;5.70;99.90
3492;DHT22;1760;52.480;13.422;2023-12-20T15:18:33;5.60;99.90
3492;DHT22;1760;52.480;13.422;2023-12-20T15:21:00;5.70;99.90
3492;DHT22;1760;52.480;13.422;2023-12-20T15:23:27;5.70;99.90
3492;DHT22;1760;52.480;13.422;2023-12-20T15:25:56;5.70;99.90
3492;DHT22;1760;52.480;13.422;2023-12-20T15:28:23;5.70;99.90
3492;DHT22;1760;52.480;13.422;2023-12-20T15:30:51;5.70;99.90
3492;DHT22;1760;52.480;13.422;2023-12-20T15:33:18;5.60;99.90
3492;DHT22;1760;52.480;13.422;2023-12-20T15:35:45;5.60;99.90
3492;DHT22;1760;52.480;13.422;2023-12-20T15:38:12;5.60;99.90
3492;DHT22;1760;52.480;13.422;2023-12-20T15:40:39;5.50;99.90
3492;DHT22;1760;52.480;13.422;2023-12-20T15:43:06;5.50;99.90
3492;DHT22;1760;52.480;13.422;2023-12-20T15:45:33;5.50;99.90
3492;DHT22;1760;52.480;13.422;2023-12-20T15:48:01;5.50;99.90
3492;DHT22;1760;52.480;13.422;2023-12-20T15:50:29;5.50;99.90
3492;DHT22;1760;52.480;13.422;2023-12-20T15:52:56;5.50;99.90
3492;DHT22;1760;52.480;13.422;2023-12-20T15:55:23;5.50;99.90
3492;DHT22;1760;52.480;13.422;2023-12-20T15:57:50;5.50;99.90
3492;DHT22;1760;52.480;13.422;2023-12-20T16:00:17;5.50;99.90
3492;DHT22;1760;52.480;13.422;2023-12-20T16:02:44;5.40;99.90
3492;DHT22;1760;52.480;13.422;2023-12-20T16:05:13;5.40;99.90